Time;durP1;ratioP1;P1;durP2;ratioP2;P2;SDS_P1;SDS_P2;PMS_P1;PMS_P2;Temp;Humidity;BMP_temperature;BMP_pressure;BME280_temperature;BME280_humidity;BME280_pressure;Samples;Min_cycle;Max_cycle;Signal;HPM_P1;HPM_P2
2021/07/16 00:00:11;;;;;;;13.07;8.48;;;;;;;25.35;61.94;99309.56;3494962;28;20045;-76
2021/07/16 00:01:52;;;;;;;12.32;8.50;;;;;;;25.37;61.99;99307.34;3497773;28;20554;-76
2021/07/16 00:03:33;;;;;;;16.13;9.03;;;;;;;25.36;62.15;99306.53;3498094;28;20055;-77
2021/07/16 00:05:14;;;;;;;11.10;7.77;;;;;;;25.37;61.80;99312.78;3497765;28;20066;-76
2021/07/16 00:06:55;;;;;;;12.82;8.55;;;;;;;25.37;61.33;99308.13;3483089;28;20084;-74
2021/07/16 00:08:36;;;;;;;9.40;7.73;;;;;;;25.39;61.70;99311.38;3495064;28;20048;-76
2021/07/16 00:10:21;;;;;;;9.30;7.90;;;;;;;25.40;61.83;99306.72;3497886;28;20102;-77
2021/07/16 00:12:01;;;;;;;13.45;8.32;;;;;;;25.41;61.41;99308.34;3498070;28;20788;-75
2021/07/16 00:13:43;;;;;;;11.40;9.15;;;;;;;25.39;60.93;99305.13;3497969;28;20047;-75
2021/07/16 00:15:24;;;;;;;8.67;7.63;;;;;;;25.38;61.58;99314.44;3497676;28;20060;-75
2021/07/16 00:17:05;;;;;;;9.17;8.17;;;;;;;25.36;61.24;99308.47;3497994;28;20037;-77
2021/07/16 00:18:46;;;;;;;11.67;9.30;;;;;;;25.35;61.16;99299.47;3497920;28;20040;-73
2021/07/16 00:20:27;;;;;;;10.90;9.02;;;;;;;25.35;61.12;99301.38;3498070;28;20052;-74
2021/07/16 00:22:07;;;;;;;17.23;9.47;;;;;;;25.34;61.57;99300.56;3497704;28;20105;-75
2021/07/16 00:23:48;;;;;;;10.77;8.77;;;;;;;25.35;61.19;99298.63;3497785;28;20066;-76
2021/07/16 00:25:29;;;;;;;9.77;8.27;;;;;;;25.35;60.97;99304.09;3497394;28;20049;-77
2021/07/16 00:27:10;;;;;;;11.60;8.50;;;;;;;25.34;61.21;99302.50;3497895;28;20067;-74
2021/07/16 00:28:50;;;;;;;11.60;8.53;;;;;;;25.34;61.24;99299.75;3498161;28;20525;-78
2021/07/16 00:30:31;;;;;;;15.93;8.27;;;;;;;25.35;60.94;99295.91;3498152;28;20045;-77
2021/07/16 00:32:12;;;;;;;12.57;9.03;;;;;;;25.35;61.08;99296.75;3498180;28;20434;-75
2021/07/16 00:33:54;;;;;;;10.30;8.30;;;;;;;25.34;60.96;99297.03;3498384;28;20043;-77
2021/07/16 00:35:34;;;;;;;;;;;;;;;25.38;61.30;99303.50;3498710;28;20048;-78
2021/07/16 00:37:15;;;;;;;9.88;7.40;;;;;;;25.35;61.23;99298.63;3497923;28;19928;-75
2021/07/16 00:38:56;;;;;;;11.47;8.23;;;;;;;25.35;60.85;99298.63;3498225;28;20135;-74
2021/07/16 00:40:36;;;;;;;12.67;8.47;;;;;;;25.32;61.31;99293.78;3498114;28;20488;-75
2021/07/16 00:42:18;;;;;;;11.37;7.90;;;;;;;25.32;61.14;99296.53;3497715;28;20376;-76
2021/07/16 00:43:59;;;;;;;10.68;8.00;;;;;;;25.30;61.24;99285.94;3497041;28;20049;-76
2021/07/16 00:45:40;;;;;;;10.60;8.30;;;;;;;25.30;61.37;99296.84;3482465;28;20064;-76
2021/07/16 00:47:20;;;;;;;10.03;8.37;;;;;;;25.30;61.40;99298.72;3494105;28;20500;-74
2021/07/16 00:49:01;;;;;;;10.73;7.93;;;;;;;25.29;61.29;99294.41;3497310;28;20123;-76
2021/07/16 00:50:42;;;;;;;13.03;9.00;;;;;;;25.28;61.09;99287.34;3497089;28;20139;-76
2021/07/16 00:52:23;;;;;;;10.45;7.70;;;;;;;25.25;61.52;99291.47;3497316;28;20040;-76
2021/07/16 00:54:04;;;;;;;16.80;8.60;;;;;;;25.24;61.28;99290.66;3496801;28;20447;-74
2021/07/16 00:55:45;;;;;;;9.90;7.80;;;;;;;25.26;61.30;99292.28;3482632;28;20110;-76
2021/07/16 00:57:27;;;;;;;10.25;7.95;;;;;;;25.27;61.33;99288.44;3494109;28;20533;-75
2021/07/16 00:59:08;;;;;;;11.82;7.65;;;;;;;25.29;61.47;99291.66;3497295;28;20040;-75
2021/07/16 01:00:48;;;;;;;11.17;7.97;;;;;;;25.30;61.40;99283.19;3482844;28;20037;-75
2021/07/16 01:02:29;;;;;;;9.20;7.60;;;;;;;25.31;61.38;99284.81;3482242;28;20045;-76
2021/07/16 01:04:10;;;;;;;10.77;8.70;;;;;;;25.32;61.27;99285.59;3494397;28;20127;-74
2021/07/16 01:05:51;;;;;;;13.07;7.80;;;;;;;25.33;61.42;99295.44;3497151;28;20526;-76
2021/07/16 01:07:31;;;;;;;10.80;7.43;;;;;;;25.34;61.36;99292.38;3482273;28;20132;-74
2021/07/16 01:09:12;;;;;;;11.87;8.20;;;;;;;25.35;61.23;99293.19;3494064;28;20041;-77
2021/07/16 01:10:53;;;;;;;12.87;8.77;;;;;;;25.33;60.99;99295.44;3496834;28;20728;-77
2021/07/16 01:12:38;;;;;;;8.70;7.70;;;;;;;25.29;61.31;99299.84;3482337;28;20048;-75
2021/07/16 01:14:19;;;;;;;23.13;9.75;;;;;;;25.27;61.67;99294.69;3494412;28;20051;-75
2021/07/16 01:16:00;;;;;;;10.30;7.97;;;;;;;25.26;61.32;99298.53;3496897;28;20584;-75
2021/07/16 01:17:40;;;;;;;9.80;7.80;;;;;;;25.25;61.51;99288.75;3496615;28;20097;-76
2021/07/16 01:19:41;;;;;;;11.27;7.60;;;;;;;25.26;61.34;99292.28;3481649;28;20498;-75
2021/07/16 01:21:23;;;;;;;10.88;7.82;;;;;;;25.23;61.20;99291.75;3481876;28;20044;-76
2021/07/16 01:23:23;;;;;;;8.70;7.78;;;;;;;25.26;61.20;99284.91;3479789;28;20080;-75
2021/07/16 01:25:10;;;;;;;8.25;7.35;;;;;;;25.25;61.09;99291.47;3496979;28;20127;-76
2021/07/16 01:26:50;;;;;;;8.13;7.32;;;;;;;25.26;61.22;99289.56;3496742;28;20495;-75
2021/07/16 01:28:31;;;;;;;15.30;9.03;;;;;;;25.27;60.97;99291.16;3496672;28;20123;-75
2021/07/16 01:30:13;;;;;;;12.45;7.85;;;;;;;25.28;61.06;99287.34;3496625;28;20040;-75
2021/07/16 01:31:55;;;;;;;9.63;8.18;;;;;;;25.28;60.99;99290.88;3496572;28;20048;-75
2021/07/16 01:33:35;;;;;;;11.45;7.63;;;;;;;25.30;61.08;99290.56;3496488;28;20480;-76
2021/07/16 01:35:17;;;;;;;11.40;8.10;;;;;;;25.30;60.98;99285.09;3496401;28;20055;-75
2021/07/16 01:36:58;;;;;;;14.52;8.13;;;;;;;25.29;61.15;99288.94;3496229;28;20093;-75
2021/07/16 01:38:38;;;;;;;11.77;8.80;;;;;;;25.30;61.24;99290.56;3496609;28;20052;-75
2021/07/16 01:40:21;;;;;;;11.13;8.03;;;;;;;25.29;61.25;99289.75;3496696;28;20060;-78
2021/07/16 01:42:09;;;;;;;14.40;9.75;;;;;;;25.30;61.48;99290.56;3496605;28;20048;-78
2021/07/16 01:43:50;;;;;;;9.00;8.00;;;;;;;25.31;61.23;99286.72;3481711;28;20036;-75
2021/07/16 01:45:34;;;;;;;14.57;8.20;;;;;;;25.30;61.32;99285.94;3493449;28;20053;-74
2021/07/16 01:47:15;;;;;;;16.52;9.52;;;;;;;25.29;61.17;99278.03;3495429;28;20446;-74
2021/07/16 01:48:56;;;;;;;15.27;8.87;;;;;;;25.26;61.81;99278.63;3496075;28;20047;-75
2021/07/16 01:50:39;;;;;;;13.00;8.33;;;;;;;25.27;61.42;99280.25;3481578;28;20045;-76
2021/07/16 01:52:19;;;;;;;12.35;8.23;;;;;;;25.26;61.31;99274.00;3493931;28;20086;-77
2021/07/16 01:54:00;;;;;;;16.13;9.47;;;;;;;25.29;61.54;99280.75;3481725;28;20091;-76
2021/07/16 01:55:41;;;;;;;14.50;8.97;;;;;;;25.26;61.49;99284.91;3493392;28;20083;-77
2021/07/16 01:57:22;;;;;;;12.20;8.57;;;;;;;25.27;61.36;99274.78;3496126;28;20136;-76
2021/07/16 01:59:03;;;;;;;12.40;8.50;;;;;;;25.28;61.55;99281.88;3496314;28;20495;-74
2021/07/16 02:00:46;;;;;;;12.60;8.85;;;;;;;25.30;61.40;99276.91;3496162;28;20415;-76
2021/07/16 02:02:27;;;;;;;9.43;7.82;;;;;;;25.33;61.52;99279.06;3496261;28;20169;-76
2021/07/16 02:04:08;;;;;;;12.40;8.07;;;;;;;25.36;61.40;99273.00;3481525;28;20183;-77
2021/07/16 02:05:49;;;;;;;16.43;8.43;;;;;;;25.39;61.21;99281.38;3492650;28;20507;-77
2021/07/16 02:07:29;;;;;;;12.53;8.17;;;;;;;25.41;61.43;99278.34;3496237;28;20049;-75
2021/07/16 02:09:10;;;;;;;10.73;8.23;;;;;;;25.43;61.49;99276.13;3481701;28;20037;-74
2021/07/16 02:10:55;;;;;;;10.27;8.13;;;;;;;25.43;61.10;99278.84;3493226;28;20075;-76
2021/07/16 02:12:36;;;;;;;12.50;8.60;;;;;;;25.45;61.13;99276.63;3496117;28;20037;-76
2021/07/16 02:14:16;;;;;;;14.90;8.50;;;;;;;25.46;61.62;99280.97;3496092;28;20040;-76
2021/07/16 02:15:58;;;;;;;11.43;8.33;;;;;;;25.49;61.23;99277.63;3496115;28;20597;-75
2021/07/16 02:17:39;;;;;;;;;;;;;;;25.52;61.11;99277.03;3495608;28;20054;-74
2021/07/16 02:19:21;;;;;;;17.85;8.68;;;;;;;25.48;61.51;99281.47;3481301;28;19925;-77
2021/07/16 02:21:02;;;;;;;13.50;8.05;;;;;;;25.48;61.69;99273.31;3493675;28;20491;-76
2021/07/16 02:22:42;;;;;;;15.37;9.10;;;;;;;25.49;61.35;99274.91;3496236;28;20040;-76
2021/07/16 02:24:23;;;;;;;13.17;8.30;;;;;;;25.52;61.27;99277.03;3496019;28;20369;-75
2021/07/16 02:26:04;;;;;;;9.90;8.07;;;;;;;25.54;61.24;99274.81;3496108;28;20232;-77
2021/07/16 02:27:46;;;;;;;13.00;8.70;;;;;;;25.56;60.91;99280.78;3496072;28;20094;-75
2021/07/16 02:29:27;;;;;;;11.68;8.80;;;;;;;25.56;61.35;99283.50;3496212;28;20127;-75
2021/07/16 02:31:10;;;;;;;14.35;7.75;;;;;;;25.58;61.04;99281.28;3496047;28;20055;-75
2021/07/16 02:32:52;;;;;;;12.70;8.00;;;;;;;25.60;61.29;99276.31;3495977;28;20201;-76
2021/07/16 02:34:32;;;;;;;10.35;8.75;;;;;;;25.66;60.99;99282.47;3496022;28;20044;-79
2021/07/16 02:36:16;;;;;;;16.93;9.80;;;;;;;25.63;61.07;99283.88;3496070;28;20584;-74
2021/07/16 02:38:01;;;;;;;16.10;10.23;;;;;;;25.56;61.53;99278.03;3496035;28;20040;-74
2021/07/16 02:39:41;;;;;;;13.32;10.18;;;;;;;25.47;61.50;99274.41;3495977;28;20496;-74
2021/07/16 02:41:22;;;;;;;11.73;9.73;;;;;;;25.40;61.92;99285.72;3496025;28;20037;-73
2021/07/16 02:43:04;;;;;;;17.87;10.97;;;;;;;25.31;62.25;99281.28;3495893;28;20045;-75
2021/07/16 02:44:45;;;;;;;16.40;11.05;;;;;;;25.24;62.26;99285.19;3495937;28;20458;-73
2021/07/16 02:46:26;;;;;;;11.55;9.52;;;;;;;25.18;62.09;99278.22;3495974;28;20053;-75
2021/07/16 02:48:07;;;;;;;14.20;9.90;;;;;;;25.15;62.20;99278.00;3495866;28;20131;-73
2021/07/16 02:49:47;;;;;;;13.87;10.23;;;;;;;25.15;62.55;99272.53;3496014;28;20036;-74
2021/07/16 02:51:28;;;;;;;10.17;9.17;;;;;;;25.15;62.64;99278.81;3495875;28;20043;-73
2021/07/16 02:53:10;;;;;;;17.47;12.00;;;;;;;25.15;62.79;99278.00;3481052;28;20045;-74
2021/07/16 02:54:51;;;;;;;12.93;10.40;;;;;;;25.13;62.63;99283.75;3492908;28;20135;-73
2021/07/16 02:56:31;;;;;;;21.90;11.40;;;;;;;25.13;62.85;99277.47;3496028;28;20415;-73
2021/07/16 02:58:12;;;;;;;17.60;11.20;;;;;;;25.11;63.03;99283.22;3495890;28;20033;-74
2021/07/16 02:59:53;;;;;;;12.63;10.40;;;;;;;25.11;62.62;99279.69;3481036;28;20045;-74
2021/07/16 03:02:03;;;;;;;11.47;10.10;;;;;;;25.13;62.80;99286.47;3481045;28;20041;-73
2021/07/16 03:03:44;;;;;;;17.23;9.73;;;;;;;25.10;62.56;99291.72;3495720;28;20044;-75
2021/07/16 03:05:30;;;;;;;14.30;10.10;;;;;;;25.10;62.91;99292.53;3496187;28;20419;-74
2021/07/16 03:07:10;;;;;;;14.25;9.65;;;;;;;25.12;62.81;99289.47;3495999;28;20135;-74
2021/07/16 03:08:51;;;;;;;14.83;9.97;;;;;;;25.12;62.63;99284.03;3480907;28;20562;-74
2021/07/16 03:10:37;;;;;;;13.47;9.83;;;;;;;25.13;62.87;99289.19;3492913;28;20045;-74
2021/07/16 03:12:18;;;;;;;14.88;9.75;;;;;;;25.13;63.01;99286.47;3495878;28;20127;-75
2021/07/16 03:13:59;;;;;;;14.93;10.10;;;;;;;25.15;63.23;99284.25;3495588;28;20392;-74
2021/07/16 03:15:40;;;;;;;20.00;9.10;;;;;;;25.17;62.89;99292.16;3495731;28;20072;-74
2021/07/16 03:17:20;;;;;;;12.48;9.38;;;;;;;25.17;62.81;99292.16;3497063;28;20045;-74
2021/07/16 03:19:02;;;;;;;12.80;9.80;;;;;;;25.19;63.08;99293.47;3498323;28;20543;-74
2021/07/16 03:20:44;;;;;;;;;;;;;;;25.26;62.73;99300.47;3483808;28;20107;-74
2021/07/16 03:22:24;;;;;;;14.70;10.05;;;;;;;25.20;63.00;99295.09;3495448;28;19965;-74
2021/07/16 03:24:05;;;;;;;13.60;10.33;;;;;;;25.18;62.84;99291.84;3498427;28;20495;-75
2021/07/16 03:25:46;;;;;;;17.90;10.07;;;;;;;25.17;63.14;99294.88;3498242;28;20200;-74
2021/07/16 03:27:27;;;;;;;17.02;10.40;;;;;;;25.16;62.76;99294.06;3498008;28;20422;-75
2021/07/16 03:29:08;;;;;;;16.70;10.47;;;;;;;25.15;62.99;99297.91;3498249;28;20040;-75
2021/07/16 03:30:48;;;;;;;19.60;10.70;;;;;;;25.14;63.21;99290.81;3483332;28;20044;-74
2021/07/16 03:32:29;;;;;;;16.20;10.50;;;;;;;25.15;62.75;99295.16;3494991;28;20041;-73
2021/07/16 03:34:10;;;;;;;14.13;10.23;;;;;;;25.16;63.18;99299.53;3498397;28;20224;-72
2021/07/16 03:35:51;;;;;;;20.13;10.40;;;;;;;25.17;63.30;99300.34;3497902;28;20052;-73
2021/07/16 03:37:31;;;;;;;16.20;11.00;;;;;;;25.17;63.23;99298.44;3498071;28;20066;-75
2021/07/16 03:39:12;;;;;;;15.97;11.47;;;;;;;25.19;63.34;99295.38;3498162;28;20407;-76
2021/07/16 03:40:55;;;;;;;16.77;10.73;;;;;;;25.20;63.35;99297.03;3497817;28;20090;-74
2021/07/16 03:42:37;;;;;;;21.10;12.05;;;;;;;25.19;63.36;99298.13;3498285;28;20040;-75
2021/07/16 03:44:18;;;;;;;17.98;10.40;;;;;;;25.17;63.51;99303.06;3498455;28;20052;-78
2021/07/16 03:45:58;;;;;;;15.30;10.00;;;;;;;25.19;63.27;99298.91;3498467;28;20110;-74
2021/07/16 03:47:44;;;;;;;16.27;10.77;;;;;;;25.21;63.33;99295.91;3483109;28;20549;-75
2021/07/16 03:49:28;;;;;;;17.52;10.30;;;;;;;25.23;63.26;99302.69;3495266;28;20054;-75
2021/07/16 03:51:09;;;;;;;13.27;10.20;;;;;;;25.27;63.08;99312.97;3497853;28;20123;-78
2021/07/16 03:52:51;;;;;;;15.55;9.27;;;;;;;25.28;63.20;99301.78;3497989;28;20146;-76
2021/07/16 03:54:32;;;;;;;20.10;10.40;;;;;;;25.30;63.15;99307.75;3497723;28;20568;-76
2021/07/16 03:56:12;;;;;;;16.43;10.73;;;;;;;25.33;63.05;99315.31;3497691;28;20036;-76
2021/07/16 03:57:53;;;;;;;17.80;11.47;;;;;;;25.34;62.92;99314.19;3482736;28;20539;-76
2021/07/16 03:59:35;;;;;;;15.00;10.60;;;;;;;25.37;62.94;99318.25;3494877;28;20040;-76
2021/07/16 04:01:15;;;;;;;16.33;10.82;;;;;;;25.38;63.34;99314.44;3497759;28;20415;-76
2021/07/16 04:02:57;;;;;;;14.57;9.37;;;;;;;25.39;62.88;99310.56;3482750;28;20044;-75
2021/07/16 04:04:38;;;;;;;13.80;10.45;;;;;;;25.41;63.30;99316.53;3481503;28;20064;-80
2021/07/16 04:06:20;;;;;;;13.43;10.87;;;;;;;25.43;63.11;99311.59;3495344;28;20427;-75
2021/07/16 04:08:05;;;;;;;12.50;9.02;;;;;;;25.47;63.00;99315.31;3497746;28;20101;-77
2021/07/16 04:09:45;;;;;;;15.48;9.77;;;;;;;25.51;62.61;99310.09;3498016;28;20045;-76
2021/07/16 04:11:26;;;;;;;15.57;9.27;;;;;;;25.55;62.82;99313.81;3482812;28;20043;-75
2021/07/16 04:13:09;;;;;;;15.73;10.00;;;;;;;25.58;62.43;99308.56;3494670;28;20093;-77
2021/07/16 04:14:52;;;;;;;16.40;10.00;;;;;;;25.63;62.57;99308.44;3497431;28;20044;-77
2021/07/16 04:16:33;;;;;;;12.57;9.60;;;;;;;25.68;62.27;99318.47;3497588;28;20033;-77
2021/07/16 04:18:13;;;;;;;15.30;10.07;;;;;;;25.72;62.11;99318.69;3497514;28;20185;-78
2021/07/16 04:19:55;;;;;;;19.77;10.27;;;;;;;25.76;62.37;99312.28;3497706;28;20109;-76
2021/07/16 04:21:35;;;;;;;14.45;9.55;;;;;;;25.80;62.11;99310.56;3497513;28;20048;-76
2021/07/16 04:23:16;;;;;;;11.60;8.47;;;;;;;25.84;61.58;99311.63;3497458;28;20672;-77
2021/07/16 04:24:57;;;;;;;13.97;10.30;;;;;;;25.87;61.55;99308.28;3497200;28;20048;-74
2021/07/16 04:26:37;;;;;;;11.57;8.70;;;;;;;25.92;61.42;99315.56;3482550;28;20119;-74
2021/07/16 04:28:21;;;;;;;11.50;9.93;;;;;;;25.95;61.66;99309.47;3493792;28;20047;-76
2021/07/16 04:30:02;;;;;;;11.23;9.10;;;;;;;26.00;61.23;99309.38;3497306;28;20042;-73
2021/07/16 04:31:43;;;;;;;14.95;10.48;;;;;;;26.03;61.42;99307.94;3497294;28;20049;-73
2021/07/16 04:33:24;;;;;;;14.43;10.30;;;;;;;26.07;61.17;99307.03;3497087;28;20063;-73
2021/07/16 04:35:06;;;;;;;16.63;10.90;;;;;;;26.11;61.15;99313.47;3482297;28;20508;-73
2021/07/16 04:36:46;;;;;;;;;;;;;;;26.20;60.87;99310.00;3494935;28;20384;-73
2021/07/16 04:38:27;;;;;;;13.50;9.98;;;;;;;26.21;60.38;99314.38;3497010;28;20071;-74
2021/07/16 04:40:10;;;;;;;14.47;10.60;;;;;;;26.24;60.98;99314.56;3497256;28;20403;-73
2021/07/16 04:41:51;;;;;;;12.80;9.65;;;;;;;26.29;60.49;99311.72;3468642;28;20037;-73
2021/07/16 04:43:31;;;;;;;15.47;10.80;;;;;;;26.34;60.48;99324.47;3479867;28;20447;-71
2021/07/16 04:45:13;;;;;;;14.50;10.10;;;;;;;26.38;60.46;99316.44;3494067;28;20056;-73
2021/07/16 04:46:56;;;;;;;10.77;9.63;;;;;;;26.41;60.36;99324.84;3497149;28;20106;-73
2021/07/16 04:48:37;;;;;;;15.52;10.40;;;;;;;26.46;60.79;99316.53;3497188;28;20412;-74
2021/07/16 04:50:18;;;;;;;18.37;10.30;;;;;;;26.50;60.23;99320.25;3496993;28;20041;-72
2021/07/16 04:52:00;;;;;;;13.05;9.23;;;;;;;26.54;60.58;99324.03;3496937;28;20526;-71
2021/07/16 04:53:41;;;;;;;;;;;;;;;26.61;60.07;99320.84;3497408;28;20040;-73
2021/07/16 04:55:21;;;;;;;14.52;10.70;;;;;;;26.61;60.52;99323.56;3497149;28;20050;-76
2021/07/16 04:57:02;;;;;;;15.43;10.73;;;;;;;26.64;60.00;99327.63;3496930;28;20036;-75
2021/07/16 04:58:43;;;;;;;13.10;9.70;;;;;;;26.68;60.19;99328.63;3497044;28;20043;-75
2021/07/16 05:00:24;;;;;;;14.93;11.87;;;;;;;26.70;60.43;99323.66;3482327;28;20527;-75
2021/07/16 05:02:05;;;;;;;15.30;10.00;;;;;;;26.73;60.02;99326.56;3494025;28;20048;-76
2021/07/16 05:03:46;;;;;;;;;;;;;;;26.83;59.86;99324.72;3497509;28;20044;-75
2021/07/16 05:05:27;;;;;;;14.80;9.57;;;;;;;26.86;59.84;99326.81;3495929;28;19939;-73
2021/07/16 05:07:09;;;;;;;13.73;10.83;;;;;;;26.90;59.36;99325.06;3496641;28;20400;-74
2021/07/16 05:08:50;;;;;;;14.50;10.20;;;;;;;26.93;59.62;99325.25;3482001;28;20049;-72
2021/07/16 05:10:31;;;;;;;11.07;9.88;;;;;;;26.98;59.33;99327.88;3493937;28;20095;-73
2021/07/16 05:12:12;;;;;;;12.17;9.13;;;;;;;27.03;59.01;99328.84;3497827;28;20045;-74
2021/07/16 05:13:53;;;;;;;14.77;10.70;;;;;;;27.08;59.06;99331.44;3498368;28;20047;-74
2021/07/16 05:15:34;;;;;;;13.10;10.63;;;;;;;27.14;59.11;99330.22;3497233;28;20071;-74
2021/07/16 05:17:14;;;;;;;21.70;10.73;;;;;;;27.21;58.77;99329.78;3497100;28;20971;-75
2021/07/16 05:18:55;;;;;;;15.80;10.57;;;;;;;27.24;58.45;99327.25;3497165;28;20055;-75
2021/07/16 05:20:36;;;;;;;18.40;10.57;;;;;;;27.31;58.47;99337.72;3497316;28;20083;-72
2021/07/16 05:22:16;;;;;;;11.73;10.03;;;;;;;27.34;58.22;99332.44;3496651;28;20113;-71
2021/07/16 05:23:57;;;;;;;14.20;9.77;;;;;;;27.40;58.22;99333.09;3496700;28;20044;-72
2021/07/16 05:25:39;;;;;;;15.50;10.83;;;;;;;27.47;58.04;99338.09;3496984;28;20636;-71
2021/07/16 05:27:19;;;;;;;;;;;;;;;27.54;57.97;99339.28;3482633;28;20531;-74
2021/07/16 05:29:00;;;;;;;13.02;9.75;;;;;;;27.56;57.52;99337.03;3479122;28;19913;-73
2021/07/16 05:30:41;;;;;;;15.73;9.63;;;;;;;27.64;57.39;99338.19;3493074;28;20040;-77
2021/07/16 05:32:22;;;;;;;12.70;9.30;;;;;;;27.70;57.71;99336.94;3496369;28;20135;-79
2021/07/16 05:34:03;;;;;;;12.90;9.50;;;;;;;27.76;57.03;99335.66;3496709;28;20495;-78
2021/07/16 05:35:44;;;;;;;12.80;10.13;;;;;;;27.82;56.92;99337.13;3497100;28;20101;-79
2021/07/16 05:37:25;;;;;;;10.80;9.10;;;;;;;27.89;56.66;99333.94;3495186;28;20055;-77
2021/07/16 05:39:06;;;;;;;15.03;10.10;;;;;;;27.94;56.33;99335.75;3496543;28;20503;-77
2021/07/16 05:40:46;;;;;;;12.18;8.93;;;;;;;28.01;55.94;99331.41;3495415;28;20037;-78
2021/07/16 05:42:27;;;;;;;10.17;7.67;;;;;;;28.08;54.81;99330.13;3496264;28;20052;-78
2021/07/16 05:44:08;;;;;;;10.53;8.20;;;;;;;28.13;55.20;99328.03;3496458;28;20039;-78
2021/07/16 05:45:48;;;;;;;10.67;6.57;;;;;;;28.20;54.06;99322.88;3496412;28;20130;-77
2021/07/16 05:47:29;;;;;;;14.77;7.00;;;;;;;28.23;53.14;99327.72;3496495;28;20032;-77
2021/07/16 05:49:10;;;;;;;16.67;6.40;;;;;;;28.31;52.42;99328.06;3496249;28;20040;-79
2021/07/16 05:50:51;;;;;;;11.30;6.93;;;;;;;28.33;52.38;99328.53;3496596;28;20127;-77
2021/07/16 05:52:32;;;;;;;11.30;7.63;;;;;;;28.39;51.91;99340.94;3495481;28;20047;-77
2021/07/16 05:54:13;;;;;;;14.90;7.82;;;;;;;28.43;52.28;99330.97;3496173;28;20052;-78
2021/07/16 05:55:54;;;;;;;14.13;7.30;;;;;;;28.47;52.11;99331.94;3496434;28;20056;-75
2021/07/16 05:57:34;;;;;;;7.80;6.50;;;;;;;28.53;51.76;99327.94;3481439;28;20049;-77
2021/07/16 05:59:15;;;;;;;14.53;8.53;;;;;;;28.58;52.30;99333.25;3493277;28;20396;-76
2021/07/16 06:00:56;;;;;;;11.87;8.63;;;;;;;28.64;52.42;99325.66;3496337;28;20498;-77
2021/07/16 06:02:37;;;;;;;14.87;11.47;;;;;;;28.68;52.42;99332.94;3496255;28;20067;-78
2021/07/16 06:04:18;;;;;;;12.52;8.90;;;;;;;28.74;52.48;99321.78;3496369;28;20131;-76
2021/07/16 06:05:58;;;;;;;15.23;8.43;;;;;;;28.81;52.04;99319.34;3495831;28;20454;-77
2021/07/16 06:07:40;;;;;;;10.30;8.37;;;;;;;28.87;52.45;99323.53;3481391;28;20118;-76
2021/07/16 06:09:20;;;;;;;12.13;7.20;;;;;;;28.91;52.36;99317.09;3492966;28;20450;-80
2021/07/16 06:11:01;;;;;;;11.00;6.07;;;;;;;28.97;51.21;99323.19;3496425;28;20037;-78
2021/07/16 06:12:42;;;;;;;9.43;7.63;;;;;;;29.02;51.05;99331.25;3496157;28;20059;-77
2021/07/16 06:14:23;;;;;;;10.02;8.23;;;;;;;29.08;51.02;99329.97;3496184;28;20144;-77
2021/07/16 06:16:06;;;;;;;11.18;7.78;;;;;;;29.13;51.67;99332.53;3481243;28;20059;-77
2021/07/16 06:17:47;;;;;;;8.33;7.50;;;;;;;29.20;50.89;99333.97;3493065;28;20484;-78
2021/07/16 06:19:27;;;;;;;9.98;8.40;;;;;;;29.26;51.09;99327.97;3496063;28;20563;-78
2021/07/16 06:21:08;;;;;;;11.60;8.67;;;;;;;29.33;51.46;99328.28;3495803;28;20530;-78
2021/07/16 06:22:49;;;;;;;11.60;8.38;;;;;;;29.41;51.49;99326.66;3496773;28;20564;-77
2021/07/16 06:24:30;;;;;;;8.77;7.13;;;;;;;29.52;50.70;99336.13;3496014;28;20117;-78
2021/07/16 06:26:10;;;;;;;7.83;7.03;;;;;;;29.58;50.35;99320.25;3494874;28;20511;-77
2021/07/16 06:27:51;;;;;;;10.47;7.43;;;;;;;29.65;50.11;99328.03;3495578;28;20056;-77
2021/07/16 06:29:32;;;;;;;8.20;7.40;;;;;;;29.71;49.68;99329.44;3495995;28;20290;-76
2021/07/16 06:31:13;;;;;;;10.10;7.43;;;;;;;29.81;49.31;99328.25;3495981;28;20499;-78
2021/07/16 06:32:54;;;;;;;11.00;7.77;;;;;;;29.91;49.17;99320.44;3495722;28;20503;-78
2021/07/16 06:34:34;;;;;;;9.10;8.10;;;;;;;30.03;49.22;99327.97;3496042;28;20080;-78
2021/07/16 06:36:15;;;;;;;9.50;8.52;;;;;;;30.13;48.86;99316.59;3495814;28;20079;-79
2021/07/16 06:37:56;;;;;;;9.33;7.80;;;;;;;30.26;48.72;99327.69;3495744;28;20536;-77
2021/07/16 06:39:37;;;;;;;8.52;7.10;;;;;;;30.39;48.42;99324.66;3496042;28;20106;-77
2021/07/16 06:41:18;;;;;;;8.73;7.78;;;;;;;30.49;48.03;99326.22;3495879;28;20047;-76
2021/07/16 06:42:59;;;;;;;9.68;7.95;;;;;;;30.60;47.93;99321.09;3480883;28;20041;-77
2021/07/16 06:44:40;;;;;;;9.77;7.80;;;;;;;30.75;47.91;99323.22;3493165;28;20056;-77
2021/07/16 06:46:21;;;;;;;11.40;9.07;;;;;;;30.93;48.23;99321.13;3495929;28;20038;-79
2021/07/16 06:48:02;;;;;;;12.27;8.27;;;;;;;31.05;47.67;99320.34;3496182;28;20282;-77
2021/07/16 06:49:45;;;;;;;10.02;8.27;;;;;;;31.13;46.83;99316.69;3495738;28;20053;-78
2021/07/16 06:51:25;;;;;;;10.25;7.82;;;;;;;31.17;46.66;99327.84;3495985;28;20383;-77
2021/07/16 06:53:06;;;;;;;11.50;9.10;;;;;;;31.22;46.92;99322.13;3483955;28;20044;-76
2021/07/16 06:54:47;;;;;;;11.60;8.83;;;;;;;31.21;46.93;99318.56;3495544;28;20542;-78
2021/07/16 06:56:27;;;;;;;10.27;8.80;;;;;;;31.16;46.93;99321.53;3483549;28;20367;-77
2021/07/16 06:58:08;;;;;;;10.00;8.03;;;;;;;31.08;47.21;99319.66;3495417;28;20051;-78
2021/07/16 06:59:49;;;;;;;8.73;7.70;;;;;;;31.07;47.06;99326.31;3498662;28;20649;-78
2021/07/16 07:01:30;;;;;;;10.65;8.52;;;;;;;31.07;46.96;99320.81;3498468;28;20286;-78
2021/07/16 07:03:11;;;;;;;13.53;8.87;;;;;;;31.07;47.20;99323.56;3498709;28;20048;-77
2021/07/16 07:04:51;;;;;;;10.87;9.30;;;;;;;31.11;47.09;99320.94;3498368;28;20044;-77
2021/07/16 07:06:33;;;;;;;9.63;8.63;;;;;;;31.16;46.89;99320.72;3498290;28;20291;-77
2021/07/16 07:08:13;;;;;;;9.30;8.40;;;;;;;31.13;46.67;99327.69;3498368;28;20166;-77
2021/07/16 07:09:54;;;;;;;10.20;9.10;;;;;;;31.07;46.85;99329.88;3483525;28;20419;-77
2021/07/16 07:11:36;;;;;;;10.87;8.47;;;;;;;31.01;46.80;99324.94;3495267;28;20131;-78
2021/07/16 07:13:20;;;;;;;13.38;8.95;;;;;;;30.92;46.79;99338.78;3497988;28;20377;-78
2021/07/16 07:15:00;;;;;;;10.57;9.50;;;;;;;30.95;46.66;99326.28;3498409;28;20087;-77
2021/07/16 07:16:41;;;;;;;12.20;9.90;;;;;;;31.03;46.89;99322.63;3498213;28;20047;-76
2021/07/16 07:18:22;;;;;;;11.37;8.30;;;;;;;31.03;46.59;99328.13;3497994;28;20389;-77
2021/07/16 07:20:04;;;;;;;10.20;9.03;;;;;;;30.98;46.78;99326.41;3498399;28;20044;-81
2021/07/16 07:21:45;;;;;;;9.90;8.93;;;;;;;30.99;46.63;99329.97;3498516;28;20048;-78
2021/07/16 07:23:25;;;;;;;9.88;8.88;;;;;;;31.08;46.93;99327.91;3498289;28;20043;-78
2021/07/16 07:25:08;;;;;;;11.03;9.70;;;;;;;31.23;46.91;99327.25;3498198;28;20059;-79
2021/07/16 07:26:48;;;;;;;11.30;10.07;;;;;;;31.43;46.35;99325.59;3483482;28;20045;-79
2021/07/16 07:28:29;;;;;;;11.80;10.37;;;;;;;31.59;46.56;99322.97;3495174;28;20127;-79
2021/07/16 07:30:10;;;;;;;10.83;8.40;;;;;;;31.74;46.05;99324.25;3483263;28;20866;-78
2021/07/16 07:31:51;;;;;;;9.25;8.35;;;;;;;31.89;45.60;99326.28;3480265;28;20052;-78
2021/07/16 07:33:32;;;;;;;15.88;10.05;;;;;;;32.06;45.58;99319.72;3495138;28;20467;-78
2021/07/16 07:35:13;;;;;;;10.57;9.38;;;;;;;32.18;45.07;99327.19;3497882;28;20033;-78
2021/07/16 07:36:54;;;;;;;10.30;9.27;;;;;;;32.33;44.54;99322.91;3483002;28;20040;-78
2021/07/16 07:38:35;;;;;;;10.65;9.52;;;;;;;32.52;44.94;99314.81;3495108;28;20403;-77
2021/07/16 07:40:17;;;;;;;10.68;9.52;;;;;;;32.68;44.52;99316.81;3483160;28;20045;-77
2021/07/16 07:41:58;;;;;;;11.15;9.77;;;;;;;32.75;43.83;99317.81;3495374;28;20495;-77
2021/07/16 07:43:39;;;;;;;13.85;11.48;;;;;;;32.75;43.99;99317.81;3497944;28;20076;-79
2021/07/16 07:45:20;;;;;;;12.55;9.60;;;;;;;32.67;44.24;99323.50;3498244;28;20568;-79
2021/07/16 07:47:01;;;;;;;;;;;;;;;32.72;44.16;99318.53;3498496;28;20036;-79
2021/07/16 07:48:42;;;;;;;11.02;9.90;;;;;;;32.80;44.61;99323.09;3498088;28;19920;-80
2021/07/16 07:50:24;;;;;;;13.63;10.30;;;;;;;33.00;44.48;99324.03;3483071;28;20095;-79
2021/07/16 07:52:06;;;;;;;11.60;9.07;;;;;;;33.18;43.90;99318.22;3494901;28;20583;-78